createdAt,value
2022-11-04T00:02:07.823Z,12.02
2022-11-04T00:04:34.554Z,12.00
2022-11-04T00:07:01.275Z,12.03
2022-11-04T00:09:30.464Z,11.96
2022-11-04T00:12:16.275Z,11.96
2022-11-04T00:14:43.275Z,11.95
2022-11-04T00:17:22.367Z,11.91
2022-11-04T00:20:12.053Z,11.86
2022-11-04T00:22:59.227Z,11.90
2022-11-04T00:25:45.309Z,11.89
2022-11-04T00:28:30.386Z,11.98
2022-11-04T00:30:58.756Z,11.87
2022-11-04T00:33:25.821Z,11.83
2022-11-04T00:35:54.858Z,11.75
2022-11-04T00:38:22.266Z,11.71
2022-11-04T00:40:50.013Z,11.69
2022-11-04T00:43:19.276Z,11.71
2022-11-04T00:45:46.022Z,11.70
2022-11-04T00:48:12.920Z,11.69
2022-11-04T00:50:39.906Z,11.68
2022-11-04T00:53:06.917Z,11.60
2022-11-04T00:55:33.846Z,11.59
2022-11-04T00:58:00.518Z,11.56
2022-11-04T01:00:27.509Z,11.50
2022-11-04T01:02:54.288Z,11.44
2022-11-04T01:05:21.080Z,11.43
2022-11-04T01:07:47.786Z,11.43
2022-11-04T01:10:14.575Z,11.41
2022-11-04T01:12:41.212Z,11.37
2022-11-04T01:15:08.198Z,11.36
2022-11-04T01:17:35.062Z,11.36
2022-11-04T01:20:01.709Z,11.33
2022-11-04T01:22:29.890Z,11.38
2022-11-04T01:24:57.135Z,11.41
2022-11-04T01:27:24.014Z,11.38
2022-11-04T01:29:51.133Z,11.38
2022-11-04T01:32:18.033Z,11.40
2022-11-04T01:34:46.000Z,11.45
2022-11-04T01:37:12.655Z,11.49
2022-11-04T01:39:39.396Z,11.46
2022-11-04T01:42:06.117Z,11.44
2022-11-04T01:44:49.615Z,11.35
2022-11-04T01:47:24.269Z,10.99
2022-11-04T01:50:08.793Z,11.20
2022-11-04T01:52:40.972Z,11.25
2022-11-04T01:55:13.371Z,11.32
2022-11-04T01:57:44.160Z,11.36
2022-11-04T02:00:12.351Z,11.37
2022-11-04T02:02:57.058Z,11.33
2022-11-04T02:05:25.075Z,11.36
2022-11-04T02:07:55.524Z,11.32
2022-11-04T02:10:28.595Z,11.35
2022-11-04T02:12:57.151Z,11.37
2022-11-04T02:15:55.895Z,11.26
2022-11-04T02:18:37.446Z,11.25
2022-11-04T02:21:34.781Z,11.22
2022-11-04T02:24:20.129Z,11.21
2022-11-04T02:27:35.488Z,11.23
2022-11-04T02:30:18.832Z,11.25
2022-11-04T02:33:15.587Z,11.21
2022-11-04T02:35:42.183Z,11.17
2022-11-04T02:38:36.820Z,11.13
2022-11-04T02:41:17.612Z,11.17
2022-11-04T02:44:05.882Z,11.16
2022-11-04T02:46:35.089Z,11.22
2022-11-04T02:49:17.097Z,11.20
2022-11-04T02:52:00.614Z,11.19
2022-11-04T02:54:31.103Z,10.97
2022-11-04T02:57:00.700Z,11.16
2022-11-04T02:59:40.222Z,11.21
2022-11-04T03:02:12.674Z,11.26
2022-11-04T03:04:43.116Z,11.24
2022-11-04T03:07:15.102Z,11.23
2022-11-04T03:09:48.115Z,11.26
2022-11-04T03:12:18.202Z,11.28
2022-11-04T03:14:55.756Z,11.28
2022-11-04T03:17:36.512Z,11.21
2022-11-04T03:20:09.418Z,11.20
2022-11-04T03:22:37.306Z,11.17
2022-11-04T03:25:06.383Z,11.14
2022-11-04T03:27:33.093Z,11.22
2022-11-04T03:30:06.727Z,11.23
2022-11-04T03:32:58.835Z,11.19
2022-11-04T03:35:26.682Z,11.31
2022-11-04T03:37:53.791Z,11.35
2022-11-04T03:40:22.080Z,11.38
2022-11-04T03:42:57.305Z,11.36
2022-11-04T03:45:24.630Z,11.30
2022-11-04T03:47:52.050Z,11.32
2022-11-04T03:50:28.662Z,11.24
2022-11-04T03:52:55.812Z,11.27
2022-11-04T03:55:31.009Z,11.28
2022-11-04T03:58:07.047Z,11.28
2022-11-04T04:00:47.163Z,11.24
2022-11-04T04:03:28.307Z,11.15
2022-11-04T04:06:16.796Z,11.17
2022-11-04T04:09:21.241Z,11.05
2022-11-04T04:12:29.162Z,11.08
2022-11-04T04:15:04.936Z,11.16
2022-11-04T04:17:43.457Z,11.12
2022-11-04T04:20:16.784Z,11.11
2022-11-04T04:23:03.387Z,11.10
2022-11-04T04:25:50.738Z,11.07
2022-11-04T04:28:20.049Z,11.10
2022-11-04T04:30:47.759Z,11.14
2022-11-04T04:33:17.405Z,11.14
2022-11-04T04:35:56.551Z,11.06
2022-11-04T04:38:44.245Z,11.11
2022-11-04T04:41:37.033Z,11.06
2022-11-04T04:44:23.328Z,11.05
2022-11-04T04:46:52.213Z,11.06
2022-11-04T04:49:18.812Z,11.05
2022-11-04T04:51:47.951Z,11.03
2022-11-04T04:54:15.172Z,10.91
2022-11-04T04:56:41.968Z,10.88
2022-11-04T04:59:08.717Z,10.86
2022-11-04T05:01:35.534Z,10.86
2022-11-04T05:04:02.355Z,10.81
2022-11-04T05:06:29.070Z,10.79
2022-11-04T05:08:56.853Z,10.78
2022-11-04T05:11:24.645Z,10.76
2022-11-04T05:13:52.948Z,10.77
2022-11-04T05:16:19.749Z,10.78
2022-11-04T05:18:46.370Z,10.77
2022-11-04T05:21:16.162Z,10.74
2022-11-04T05:23:42.804Z,10.80
2022-11-04T05:26:09.577Z,10.75
2022-11-04T05:28:38.637Z,10.77
2022-11-04T05:31:06.841Z,10.82
2022-11-04T05:33:33.850Z,10.93
2022-11-04T05:36:14.116Z,10.95
2022-11-04T05:38:41.633Z,10.97
2022-11-04T05:41:10.238Z,10.94
2022-11-04T05:43:37.528Z,10.94
2022-11-04T05:46:04.359Z,10.87
2022-11-04T05:48:32.384Z,10.87
2022-11-04T05:51:00.752Z,10.91
2022-11-04T05:55:53.918Z,10.93
2022-11-04T05:58:20.813Z,10.97
2022-11-04T06:00:47.470Z,10.96
2022-11-04T06:03:16.334Z,10.98
2022-11-04T06:05:45.553Z,11.00
2022-11-04T06:08:13.625Z,11.05
2022-11-04T06:10:40.319Z,11.10
2022-11-04T06:13:06.958Z,11.16
2022-11-04T06:15:33.656Z,11.21
2022-11-04T06:18:00.376Z,11.31
2022-11-04T06:20:27.012Z,11.40
2022-11-04T06:22:53.652Z,11.41
2022-11-04T06:25:20.941Z,11.38
2022-11-04T06:27:48.664Z,11.30
2022-11-04T06:30:15.369Z,11.20
2022-11-04T06:32:42.172Z,11.25
2022-11-04T06:35:09.183Z,11.27
2022-11-04T06:37:36.153Z,11.34
2022-11-04T06:40:02.897Z,11.41
2022-11-04T06:42:29.608Z,11.45
2022-11-04T06:44:56.244Z,11.46
2022-11-04T06:47:25.059Z,11.33
2022-11-04T06:49:52.023Z,11.29
2022-11-04T06:52:18.771Z,11.31
2022-11-04T06:54:46.445Z,11.32
2022-11-04T06:57:13.106Z,11.37
2022-11-04T06:59:40.197Z,11.35
2022-11-04T07:02:07.351Z,11.34
2022-11-04T07:04:34.088Z,11.37
2022-11-04T07:07:00.793Z,11.32
2022-11-04T07:09:27.440Z,11.33
2022-11-04T07:11:54.176Z,11.42
2022-11-04T07:14:22.178Z,11.43
2022-11-04T07:16:52.354Z,11.40
2022-11-04T07:19:19.261Z,11.39
2022-11-04T07:21:45.973Z,11.35
2022-11-04T07:24:12.821Z,11.39
2022-11-04T07:26:40.133Z,11.37
2022-11-04T07:29:06.913Z,11.37
2022-11-04T07:31:33.674Z,11.45
2022-11-04T07:34:00.530Z,11.45
2022-11-04T07:36:27.170Z,11.49
2022-11-04T07:38:54.263Z,11.52
2022-11-04T07:41:21.758Z,11.55
2022-11-04T07:43:52.798Z,11.56
2022-11-04T07:46:20.590Z,11.68
2022-11-04T07:48:47.438Z,11.70
2022-11-04T07:51:17.363Z,11.63
2022-11-04T07:53:44.241Z,11.60
2022-11-04T07:56:12.836Z,11.60
2022-11-04T07:58:40.437Z,11.57
2022-11-04T08:01:16.227Z,11.60
2022-11-04T08:03:43.187Z,11.68
2022-11-04T08:06:12.885Z,11.70
2022-11-04T08:08:39.830Z,11.69
2022-11-04T08:11:16.819Z,11.73
2022-11-04T08:13:44.223Z,11.78
2022-11-04T08:16:16.419Z,11.77
2022-11-04T08:18:43.650Z,11.84
2022-11-04T08:21:11.867Z,11.92
2022-11-04T08:23:39.016Z,11.90
2022-11-04T08:26:10.349Z,11.86
2022-11-04T08:28:37.289Z,11.87
2022-11-04T08:31:09.549Z,11.82
2022-11-04T08:33:36.858Z,11.90
2022-11-04T08:36:09.401Z,11.95
2022-11-04T08:38:38.222Z,12.03
2022-11-04T08:41:06.732Z,12.12
2022-11-04T08:43:34.456Z,12.13
2022-11-04T08:46:02.263Z,12.08
2022-11-04T08:48:33.841Z,12.07
2022-11-04T08:51:01.086Z,12.06
2022-11-04T08:53:28.324Z,12.05
2022-11-04T08:55:57.868Z,12.09
2022-11-04T08:58:25.398Z,12.06
2022-11-04T09:00:52.696Z,12.11
2022-11-04T09:03:20.194Z,12.11
2022-11-04T09:05:49.657Z,12.03
2022-11-04T09:08:18.007Z,11.99
2022-11-04T09:10:46.953Z,12.01
2022-11-04T09:13:15.668Z,12.04
2022-11-04T09:15:42.706Z,12.06
2022-11-04T09:18:09.428Z,12.13
2022-11-04T09:20:39.399Z,12.17
2022-11-04T09:23:07.135Z,12.20
2022-11-04T09:25:35.017Z,12.11
2022-11-04T09:28:01.819Z,12.06
2022-11-04T09:30:28.712Z,11.99
2022-11-04T09:32:55.469Z,11.95
2022-11-04T09:35:22.788Z,11.89
2022-11-04T09:37:50.725Z,11.82
2022-11-04T09:40:23.491Z,11.78
2022-11-04T09:43:06.017Z,11.59
2022-11-04T09:45:34.096Z,11.89
2022-11-04T09:48:07.660Z,11.87
2022-11-04T09:50:51.173Z,11.83
2022-11-04T09:53:30.578Z,11.86
2022-11-04T09:56:10.645Z,11.82
2022-11-04T09:58:39.228Z,11.84
2022-11-04T10:01:07.054Z,11.87
2022-11-04T10:03:51.998Z,11.85
2022-11-04T10:06:32.389Z,11.85
2022-11-04T10:09:39.721Z,11.73
2022-11-04T10:15:34.864Z,11.76
2022-11-04T10:18:19.875Z,11.89
2022-11-04T10:20:46.539Z,11.93
2022-11-04T10:23:34.357Z,11.81
2022-11-04T10:26:15.011Z,11.87
2022-11-04T10:28:46.374Z,11.87
2022-11-04T10:31:18.612Z,11.90
2022-11-04T10:34:09.117Z,11.87
2022-11-04T10:36:37.971Z,11.80
2022-11-04T10:39:17.704Z,11.72
2022-11-04T10:41:46.063Z,11.78
2022-11-04T10:44:24.126Z,11.75
2022-11-04T10:47:09.646Z,11.88
2022-11-04T10:50:26.559Z,11.82
2022-11-04T10:52:43.171Z,11.88
2022-11-04T10:55:15.441Z,11.88
2022-11-04T10:57:45.047Z,11.83
2022-11-04T11:00:38.260Z,11.71
2022-11-04T11:03:25.198Z,11.61
2022-11-04T11:05:55.298Z,11.66
2022-11-04T11:08:33.719Z,11.59
2022-11-04T11:11:00.539Z,11.63
2022-11-04T11:13:34.842Z,11.65
2022-11-04T11:16:17.416Z,11.62
2022-11-04T11:18:44.121Z,11.68
2022-11-04T11:21:21.230Z,11.63
2022-11-04T11:23:51.032Z,11.64
2022-11-04T11:26:29.350Z,11.68
2022-11-04T11:29:02.164Z,11.72
2022-11-04T11:31:38.501Z,11.63
2022-11-04T11:34:15.081Z,11.71
2022-11-04T11:36:44.797Z,11.75
2022-11-04T11:39:17.005Z,11.77
2022-11-04T11:41:59.197Z,11.71
2022-11-04T11:44:32.856Z,11.82
2022-11-04T11:47:03.072Z,11.84
2022-11-04T11:49:34.472Z,11.85
2022-11-04T11:52:38.482Z,11.83
2022-11-04T11:55:41.035Z,11.65
2022-11-04T12:01:42.601Z,11.91
2022-11-04T12:10:51.691Z,11.77
2022-11-04T12:13:26.515Z,11.88
2022-11-04T12:16:35.377Z,11.85
2022-11-04T12:19:17.172Z,11.55
2022-11-04T12:22:10.992Z,11.30
2022-11-04T12:24:56.335Z,10.97
2022-11-04T12:27:52.404Z,11.03
2022-11-04T12:30:32.313Z,11.07
2022-11-04T12:33:30.127Z,10.88
2022-11-04T12:36:20.882Z,10.97
2022-11-04T12:39:04.175Z,11.02
2022-11-04T12:42:20.155Z,11.09
2022-11-04T12:45:09.941Z,11.10
2022-11-04T12:47:40.831Z,11.13
2022-11-04T12:50:25.260Z,11.06
2022-11-04T12:53:17.806Z,11.00
2022-11-04T12:55:52.881Z,11.02
2022-11-04T12:59:09.860Z,10.99
2022-11-04T13:02:11.968Z,11.09
2022-11-04T13:04:56.106Z,11.07
2022-11-04T13:07:36.006Z,11.07
2022-11-04T13:10:12.512Z,11.05
2022-11-04T13:12:43.654Z,11.06
2022-11-04T13:15:26.032Z,11.09
2022-11-04T13:18:00.193Z,11.08
2022-11-04T13:20:45.626Z,11.01
2022-11-04T13:23:41.843Z,11.05
2022-11-04T13:26:14.650Z,11.08
2022-11-04T13:28:43.023Z,11.15
2022-11-04T13:31:27.339Z,11.14
2022-11-04T13:34:33.248Z,11.09
2022-11-04T13:37:23.364Z,11.06
2022-11-04T13:39:56.267Z,11.15
2022-11-04T13:42:25.776Z,11.10
2022-11-04T13:44:57.169Z,11.03
2022-11-04T13:47:31.895Z,11.07
2022-11-04T13:49:58.750Z,11.16
2022-11-04T13:52:30.595Z,11.11
2022-11-04T13:55:02.789Z,11.04
2022-11-04T13:58:05.056Z,10.97
2022-11-04T14:00:33.757Z,11.10
2022-11-04T14:03:21.104Z,11.12
2022-11-04T14:06:08.655Z,10.99
2022-11-04T14:08:35.804Z,11.13
2022-11-04T14:11:06.771Z,11.18
2022-11-04T14:13:34.981Z,11.17
2022-11-04T14:16:04.534Z,11.21
2022-11-04T14:18:37.200Z,11.25
2022-11-04T14:21:06.362Z,11.28
2022-11-04T14:23:34.011Z,11.33
2022-11-04T14:26:06.511Z,11.32
2022-11-04T14:28:34.463Z,11.31
2022-11-04T14:31:17.404Z,11.26
2022-11-04T14:33:57.411Z,11.30
2022-11-04T14:36:24.481Z,11.36
2022-11-04T14:39:10.762Z,11.28
2022-11-04T14:41:40.662Z,11.40
2022-11-04T14:44:32.524Z,11.33
2022-11-04T14:47:22.447Z,11.28
2022-11-04T14:49:59.771Z,11.29
2022-11-04T14:52:47.460Z,11.19
2022-11-04T14:55:29.943Z,11.18
2022-11-04T14:58:00.690Z,11.15
2022-11-04T15:00:32.200Z,11.18
2022-11-04T15:03:05.141Z,11.20
2022-11-04T15:05:36.532Z,11.26
2022-11-04T15:08:23.409Z,11.28
2022-11-04T15:10:50.984Z,11.31
2022-11-04T15:13:21.195Z,11.33
2022-11-04T15:15:50.702Z,11.37
2022-11-04T15:18:28.473Z,11.35
2022-11-04T15:21:00.782Z,11.36
2022-11-04T15:23:47.539Z,11.39
2022-11-04T15:26:32.255Z,11.50
2022-11-04T15:29:08.217Z,11.62
2022-11-04T15:31:36.063Z,11.73
2022-11-04T15:34:14.198Z,11.73
2022-11-04T15:36:43.695Z,11.74
2022-11-04T15:39:30.278Z,11.70
2022-11-04T15:42:20.513Z,11.80
2022-11-04T15:44:53.625Z,11.70
2022-11-04T15:47:20.335Z,11.49
2022-11-04T15:49:50.721Z,11.23
2022-11-04T15:52:22.548Z,10.98
2022-11-04T15:54:53.277Z,10.80
2022-11-04T15:57:24.155Z,10.60
2022-11-04T16:00:07.141Z,10.44
2022-11-04T16:02:47.453Z,10.35
2022-11-04T16:05:17.220Z,10.27
2022-11-04T16:07:48.804Z,10.24
2022-11-04T16:10:31.675Z,10.16
2022-11-04T16:13:02.233Z,10.10
2022-11-04T16:15:48.240Z,10.01
2022-11-04T16:18:30.335Z,9.95
2022-11-04T16:20:58.090Z,10.02
2022-11-04T16:23:28.238Z,10.03
2022-11-04T16:26:05.905Z,10.02
2022-11-04T16:28:37.056Z,10.03
2022-11-04T16:31:07.976Z,9.98
2022-11-04T16:33:34.737Z,9.92
2022-11-04T16:36:01.808Z,9.93
2022-11-04T16:38:28.483Z,9.86
2022-11-04T16:40:55.205Z,9.84
2022-11-04T16:43:22.434Z,9.81
2022-11-04T16:45:54.368Z,9.77
2022-11-04T16:48:22.012Z,9.78
2022-11-04T16:50:49.239Z,9.81
2022-11-04T16:53:17.025Z,9.84
2022-11-04T16:55:47.303Z,9.82
2022-11-04T16:58:18.012Z,9.79
2022-11-04T17:00:44.751Z,9.74
2022-11-04T17:03:22.909Z,9.66
2022-11-04T17:05:51.746Z,9.70
2022-11-04T17:08:18.534Z,9.73
2022-11-04T17:10:45.387Z,9.73
2022-11-04T17:13:13.026Z,9.75
2022-11-04T17:15:40.646Z,9.76
2022-11-04T17:18:09.535Z,9.72
2022-11-04T17:20:36.265Z,9.65
2022-11-04T17:23:03.122Z,9.60
2022-11-04T17:25:30.482Z,9.54
2022-11-04T17:27:58.169Z,9.51
2022-11-04T17:30:25.828Z,9.47
2022-11-04T17:32:52.623Z,9.46
2022-11-04T17:35:19.334Z,9.44
2022-11-04T17:37:46.201Z,9.42
2022-11-04T17:40:16.145Z,9.42
2022-11-04T17:43:04.423Z,9.43
2022-11-04T17:45:35.535Z,9.41
2022-11-04T17:48:06.755Z,9.37
2022-11-04T17:50:34.548Z,9.37
2022-11-04T17:53:01.226Z,9.36
2022-11-04T17:55:28.525Z,9.35
2022-11-04T17:57:57.935Z,9.19
2022-11-04T18:00:29.669Z,9.11
2022-11-04T18:02:56.858Z,9.11
2022-11-04T18:05:23.551Z,9.15
2022-11-04T18:07:50.237Z,9.17
2022-11-04T18:10:17.058Z,9.17
2022-11-04T18:12:43.953Z,9.15
2022-11-04T18:15:17.159Z,9.08
2022-11-04T18:17:46.756Z,9.08
2022-11-04T18:20:18.074Z,9.05
2022-11-04T18:22:45.382Z,9.05
2022-11-04T18:25:12.833Z,9.05
2022-11-04T18:27:42.240Z,9.04
2022-11-04T18:30:09.465Z,9.01
2022-11-04T18:32:36.196Z,8.97
2022-11-04T18:35:03.008Z,8.99
2022-11-04T18:37:29.984Z,8.99
2022-11-04T18:39:56.848Z,9.03
2022-11-04T18:42:23.638Z,9.06
2022-11-04T18:44:50.398Z,9.09
2022-11-04T18:47:17.863Z,9.13
2022-11-04T18:49:44.705Z,9.11
2022-11-04T18:52:11.551Z,9.11
2022-11-04T18:55:02.608Z,9.06
2022-11-04T18:57:30.958Z,9.03
2022-11-04T18:59:57.650Z,9.02
2022-11-04T19:02:25.459Z,9.05
2022-11-04T19:04:52.503Z,9.06
2022-11-04T19:07:19.730Z,9.06
2022-11-04T19:09:47.713Z,9.04
2022-11-04T19:12:33.490Z,9.00
2022-11-04T19:15:00.170Z,8.91
2022-11-04T19:17:27.465Z,8.93
2022-11-04T19:19:54.425Z,8.99
2022-11-04T19:22:21.104Z,8.98
2022-11-04T19:24:47.993Z,9.03
2022-11-04T19:27:15.004Z,9.12
2022-11-04T19:29:41.670Z,9.17
2022-11-04T19:32:13.842Z,9.19
2022-11-04T19:34:41.295Z,9.18
2022-11-04T19:37:07.947Z,9.23
2022-11-04T19:39:37.209Z,9.22
2022-11-04T19:42:23.675Z,9.21
2022-11-04T19:44:50.469Z,9.23
2022-11-04T19:47:17.147Z,9.23
2022-11-04T19:49:43.803Z,9.24
2022-11-04T19:52:12.556Z,9.23
2022-11-04T19:54:40.134Z,9.23
2022-11-04T19:57:10.498Z,9.23
2022-11-04T19:59:39.080Z,9.15
2022-11-04T20:02:10.589Z,9.10
2022-11-04T20:04:38.150Z,9.13
2022-11-04T20:07:06.327Z,9.14
2022-11-04T20:09:33.394Z,9.16
2022-11-04T20:12:18.564Z,9.14
2022-11-04T20:14:45.517Z,9.09
2022-11-04T20:17:12.135Z,9.07
2022-11-04T20:19:38.823Z,9.03
2022-11-04T20:22:05.859Z,8.90
2022-11-04T20:24:32.654Z,8.90
2022-11-04T20:26:59.342Z,8.89
2022-11-04T20:29:25.974Z,8.89
2022-11-04T20:31:52.640Z,8.89
2022-11-04T20:34:22.902Z,8.85
2022-11-04T20:36:49.632Z,8.86
2022-11-04T20:39:20.359Z,8.80
2022-11-04T20:41:47.650Z,8.81
2022-11-04T20:44:15.731Z,8.79
2022-11-04T20:46:43.377Z,8.78
2022-11-04T20:49:10.763Z,8.77
2022-11-04T20:51:50.109Z,8.76
2022-11-04T20:54:20.904Z,8.75
2022-11-04T20:56:47.732Z,8.77
2022-11-04T20:59:14.927Z,8.78
2022-11-04T21:01:44.531Z,8.76
2022-11-04T21:04:18.757Z,8.79
2022-11-04T21:06:50.816Z,8.80
2022-11-04T21:09:19.628Z,8.82
2022-11-04T21:11:46.612Z,8.82
2022-11-04T21:14:16.192Z,8.83
2022-11-04T21:16:43.760Z,8.84
2022-11-04T21:19:12.095Z,8.83
2022-11-04T21:21:40.292Z,8.83
2022-11-04T21:24:07.233Z,8.82
2022-11-04T21:26:36.101Z,8.87
2022-11-04T21:29:06.097Z,8.84
2022-11-04T21:31:35.015Z,8.85
2022-11-04T21:34:02.092Z,8.89
2022-11-04T21:36:30.681Z,8.86
2022-11-04T21:38:59.113Z,8.90
2022-11-04T21:41:29.746Z,8.93
2022-11-04T21:44:02.019Z,8.97
2022-11-04T21:46:30.539Z,9.02
2022-11-04T21:48:57.765Z,9.11
2022-11-04T21:51:28.937Z,9.16
2022-11-04T21:53:56.573Z,9.20
2022-11-04T21:56:26.687Z,9.25
2022-11-04T21:58:54.157Z,9.27
2022-11-04T22:01:24.928Z,9.30
2022-11-04T22:03:59.419Z,9.28
2022-11-04T22:06:32.364Z,9.30
2022-11-04T22:09:00.756Z,9.32
2022-11-04T22:11:32.519Z,9.29
2022-11-04T22:14:04.742Z,9.34
2022-11-04T22:16:34.153Z,9.22
2022-11-04T22:19:03.330Z,9.37
2022-11-04T22:21:32.528Z,9.34
2022-11-04T22:24:00.272Z,9.36
2022-11-04T22:26:32.558Z,9.36
2022-11-04T22:29:00.000Z,9.32
2022-11-04T22:31:32.480Z,9.33
2022-11-04T22:34:00.818Z,9.35
2022-11-04T22:36:29.182Z,9.38
2022-11-04T22:38:56.329Z,9.38
2022-11-04T22:41:28.037Z,9.39
2022-11-04T22:43:55.678Z,9.40
2022-11-04T22:46:28.749Z,9.37
2022-11-04T22:48:55.750Z,9.37
2022-11-04T22:51:22.481Z,9.36
2022-11-04T22:53:57.666Z,9.36
2022-11-04T22:56:25.960Z,9.36
2022-11-04T22:58:54.271Z,9.36
2022-11-04T23:01:21.652Z,9.38
2022-11-04T23:03:50.617Z,9.38
2022-11-04T23:06:17.471Z,9.40
2022-11-04T23:08:45.151Z,9.40
2022-11-04T23:11:40.006Z,9.34
2022-11-04T23:14:25.897Z,9.42
2022-11-04T23:17:11.282Z,9.41
2022-11-04T23:19:39.177Z,9.43
2022-11-04T23:22:26.359Z,9.41
2022-11-04T23:25:06.124Z,9.39
2022-11-04T23:27:53.250Z,9.39
2022-11-04T23:30:21.125Z,9.37
2022-11-04T23:32:58.893Z,9.35
2022-11-04T23:35:58.105Z,9.38
2022-11-04T23:38:26.008Z,9.34
2022-11-04T23:41:15.352Z,9.35
2022-11-04T23:43:42.149Z,9.37
2022-11-04T23:46:27.402Z,9.32
2022-11-04T23:49:14.326Z,9.35
2022-11-04T23:51:59.688Z,9.37
2022-11-04T23:54:46.299Z,9.34
2022-11-04T23:57:33.677Z,9.29
